sensor_id;sensor_type;location;lat;lon;timestamp;pressure;altitude;pressure_sealevel;temperature;humidity
56456;BME280;42354;53.218;6.564;2022-11-20T00:01:16;46991.38;;;-142.92;73.27
56456;BME280;42354;53.218;6.564;2022-11-20T00:03:42;46991.38;;;-142.92;73.72
56456;BME280;42354;53.218;6.564;2022-11-20T00:06:10;46995.50;;;-142.92;73.72
56456;BME280;42354;53.218;6.564;2022-11-20T00:08:35;46985.22;;;-142.92;73.92
56456;BME280;42354;53.218;6.564;2022-11-20T00:11:08;46970.88;;;-142.92;73.97
56456;BME280;42354;53.218;6.564;2022-11-20T00:13:34;46983.19;;;-142.92;74.19
56456;BME280;42354;53.218;6.564;2022-11-20T00:16:00;46985.22;;;-142.92;73.55
56456;BME280;42354;53.218;6.564;2022-11-20T00:18:27;46962.66;;;-142.92;73.60
56456;BME280;42354;53.218;6.564;2022-11-20T00:20:53;46981.13;;;-142.92;73.65
56456;BME280;42354;53.218;6.564;2022-11-20T00:23:18;46983.19;;;-142.92;73.98
56456;BME280;42354;53.218;6.564;2022-11-20T00:25:44;46985.22;;;-142.92;73.92
56456;BME280;42354;53.218;6.564;2022-11-20T00:28:09;46987.28;;;-142.92;74.13
56456;BME280;42354;53.218;6.564;2022-11-20T00:30:34;46993.44;;;-142.92;74.08
56456;BME280;42354;53.218;6.564;2022-11-20T00:33:00;46974.97;;;-142.92;73.79
56456;BME280;42354;53.218;6.564;2022-11-20T00:35:25;47001.66;;;-142.92;73.66
56456;BME280;42354;53.218;6.564;2022-11-20T00:37:50;46991.38;;;-142.92;73.81
56456;BME280;42354;53.218;6.564;2022-11-20T00:40:16;46987.28;;;-142.92;73.92
56456;BME280;42354;53.218;6.564;2022-11-20T00:42:41;46987.28;;;-142.92;74.32
56456;BME280;42354;53.218;6.564;2022-11-20T00:45:07;46991.38;;;-142.92;73.93
56456;BME280;42354;53.218;6.564;2022-11-20T00:47:32;46987.28;;;-142.92;73.84
56456;BME280;42354;53.218;6.564;2022-11-20T00:49:57;46962.66;;;-142.92;73.94
56456;BME280;42354;53.218;6.564;2022-11-20T00:52:23;46987.28;;;-142.92;73.76
56456;BME280;42354;53.218;6.564;2022-11-20T00:54:48;47016.00;;;-142.92;73.75
56456;BME280;42354;53.218;6.564;2022-11-20T00:57:15;46972.91;;;-142.92;73.74
56456;BME280;42354;53.218;6.564;2022-11-20T00:59:40;46991.38;;;-142.92;73.53
56456;BME280;42354;53.218;6.564;2022-11-20T01:02:05;46970.88;;;-142.92;73.39
56456;BME280;42354;53.218;6.564;2022-11-20T01:04:30;46991.38;;;-142.92;73.48
56456;BME280;42354;53.218;6.564;2022-11-20T01:06:56;46987.28;;;-142.92;73.29
56456;BME280;42354;53.218;6.564;2022-11-20T01:09:21;46968.81;;;-142.92;73.19
56456;BME280;42354;53.218;6.564;2022-11-20T01:11:46;46989.34;;;-142.92;73.15
56456;BME280;42354;53.218;6.564;2022-11-20T01:14:15;46997.53;;;-142.92;73.02
56456;BME280;42354;53.218;6.564;2022-11-20T01:16:47;46993.44;;;-142.92;72.96
56456;BME280;42354;53.218;6.564;2022-11-20T01:19:16;46983.19;;;-142.92;73.22
56456;BME280;42354;53.218;6.564;2022-11-20T01:21:44;46991.38;;;-142.92;73.24
56456;BME280;42354;53.218;6.564;2022-11-20T01:24:13;46968.81;;;-142.92;73.08
56456;BME280;42354;53.218;6.564;2022-11-20T01:26:40;46987.28;;;-142.92;72.99
56456;BME280;42354;53.218;6.564;2022-11-20T01:29:07;46989.34;;;-142.92;72.77
56456;BME280;42354;53.218;6.564;2022-11-20T01:31:36;46987.28;;;-142.92;72.73
56456;BME280;42354;53.218;6.564;2022-11-20T01:34:05;46983.19;;;-142.92;73.03
56456;BME280;42354;53.218;6.564;2022-11-20T01:36:32;46997.53;;;-142.92;73.03
56456;BME280;42354;53.218;6.564;2022-11-20T01:39:00;46985.22;;;-142.92;72.85
56456;BME280;42354;53.218;6.564;2022-11-20T01:41:28;46972.91;;;-142.92;72.94
56456;BME280;42354;53.218;6.564;2022-11-20T01:44:15;46991.38;;;-142.92;73.17
56456;BME280;42354;53.218;6.564;2022-11-20T01:47:02;47007.81;;;-142.92;73.19
56456;BME280;42354;53.218;6.564;2022-11-20T01:49:37;46972.91;;;-142.92;73.34
56456;BME280;42354;53.218;6.564;2022-11-20T01:52:25;46985.22;;;-142.92;73.17
56456;BME280;42354;53.218;6.564;2022-11-20T01:55:00;46977.03;;;-142.92;73.19
56456;BME280;42354;53.218;6.564;2022-11-20T01:57:28;47020.13;;;-142.92;72.84
56456;BME280;42354;53.218;6.564;2022-11-20T02:00:00;46979.06;;;-142.92;72.61
56456;BME280;42354;53.218;6.564;2022-11-20T02:02:27;46991.38;;;-142.92;73.08
56456;BME280;42354;53.218;6.564;2022-11-20T02:04:54;46968.81;;;-142.92;73.39
56456;BME280;42354;53.218;6.564;2022-11-20T02:07:22;46972.91;;;-142.92;73.63
56456;BME280;42354;53.218;6.564;2022-11-20T02:09:48;46977.03;;;-142.92;73.42
56456;BME280;42354;53.218;6.564;2022-11-20T02:12:14;46970.88;;;-142.92;73.31
56456;BME280;42354;53.218;6.564;2022-11-20T02:14:59;46970.88;;;-142.92;73.65
56456;BME280;42354;53.218;6.564;2022-11-20T02:17:25;46991.38;;;-142.92;73.55
56456;BME280;42354;53.218;6.564;2022-11-20T02:19:51;47001.66;;;-142.92;73.66
56456;BME280;42354;53.218;6.564;2022-11-20T02:22:27;46964.72;;;-142.92;73.59
56456;BME280;42354;53.218;6.564;2022-11-20T02:24:53;46987.28;;;-142.92;73.98
56456;BME280;42354;53.218;6.564;2022-11-20T02:27:19;46999.59;;;-142.92;74.25
56456;BME280;42354;53.218;6.564;2022-11-20T02:29:55;46983.19;;;-142.92;74.05
56456;BME280;42354;53.218;6.564;2022-11-20T02:32:29;46993.44;;;-142.92;74.25
56456;BME280;42354;53.218;6.564;2022-11-20T02:34:55;46977.03;;;-142.92;74.14
56456;BME280;42354;53.218;6.564;2022-11-20T02:37:22;46987.28;;;-142.92;73.96
56456;BME280;42354;53.218;6.564;2022-11-20T02:39:50;46987.28;;;-142.92;74.30
56456;BME280;42354;53.218;6.564;2022-11-20T02:42:16;46981.13;;;-142.92;74.49
56456;BME280;42354;53.218;6.564;2022-11-20T02:44:42;46985.22;;;-142.92;74.72
56456;BME280;42354;53.218;6.564;2022-11-20T02:47:07;46977.03;;;-142.92;74.83
56456;BME280;42354;53.218;6.564;2022-11-20T02:49:33;47005.75;;;-142.92;75.05
56456;BME280;42354;53.218;6.564;2022-11-20T02:51:59;46985.22;;;-142.92;75.03
56456;BME280;42354;53.218;6.564;2022-11-20T02:54:24;46974.97;;;-142.92;75.18
56456;BME280;42354;53.218;6.564;2022-11-20T02:56:50;46987.28;;;-142.92;75.16
56456;BME280;42354;53.218;6.564;2022-11-20T02:59:16;47013.97;;;-142.92;75.23
56456;BME280;42354;53.218;6.564;2022-11-20T03:01:41;46987.28;;;-142.92;74.84
56456;BME280;42354;53.218;6.564;2022-11-20T03:04:06;46991.38;;;-142.92;74.42
56456;BME280;42354;53.218;6.564;2022-11-20T03:06:32;46985.22;;;-142.92;74.24
56456;BME280;42354;53.218;6.564;2022-11-20T03:08:57;46987.28;;;-142.92;74.18
56456;BME280;42354;53.218;6.564;2022-11-20T03:11:23;46966.75;;;-142.92;73.52
56456;BME280;42354;53.218;6.564;2022-11-20T03:13:48;46977.03;;;-142.92;73.48
56456;BME280;42354;53.218;6.564;2022-11-20T03:16:20;46970.88;;;-142.92;73.08
56456;BME280;42354;53.218;6.564;2022-11-20T03:18:46;46987.28;;;-142.92;73.05
56456;BME280;42354;53.218;6.564;2022-11-20T03:21:12;46985.22;;;-142.92;72.69
56456;BME280;42354;53.218;6.564;2022-11-20T03:23:39;46981.13;;;-142.92;72.57
56456;BME280;42354;53.218;6.564;2022-11-20T03:26:19;46993.44;;;-142.92;71.91
56456;BME280;42354;53.218;6.564;2022-11-20T03:28:52;47001.66;;;-142.92;71.80
56456;BME280;42354;53.218;6.564;2022-11-20T03:31:20;46968.81;;;-142.92;71.99
56456;BME280;42354;53.218;6.564;2022-11-20T03:33:46;46987.28;;;-142.92;72.03
56456;BME280;42354;53.218;6.564;2022-11-20T03:36:14;47005.75;;;-142.92;71.85
56456;BME280;42354;53.218;6.564;2022-11-20T03:38:40;46989.34;;;-142.92;71.49
56456;BME280;42354;53.218;6.564;2022-11-20T03:41:11;47009.84;;;-142.92;71.53
56456;BME280;42354;53.218;6.564;2022-11-20T03:43:37;47005.75;;;-142.92;71.33
56456;BME280;42354;53.218;6.564;2022-11-20T03:46:03;46974.97;;;-142.92;71.41
56456;BME280;42354;53.218;6.564;2022-11-20T03:48:28;46999.59;;;-142.92;71.55
56456;BME280;42354;53.218;6.564;2022-11-20T03:53:41;46989.34;;;-142.92;71.79
56456;BME280;42354;53.218;6.564;2022-11-20T03:56:08;46995.50;;;-142.92;72.04
56456;BME280;42354;53.218;6.564;2022-11-20T03:58:35;46997.53;;;-142.92;72.14
56456;BME280;42354;53.218;6.564;2022-11-20T04:01:14;46999.59;;;-142.92;72.01
56456;BME280;42354;53.218;6.564;2022-11-20T04:03:41;46989.34;;;-142.92;72.42
56456;BME280;42354;53.218;6.564;2022-11-20T04:06:33;47013.97;;;-142.92;72.29
56456;BME280;42354;53.218;6.564;2022-11-20T04:08:56;46987.28;;;-142.92;72.49
56456;BME280;42354;53.218;6.564;2022-11-20T04:11:24;46995.50;;;-142.92;72.38
56456;BME280;42354;53.218;6.564;2022-11-20T04:13:54;46977.03;;;-142.92;72.49
56456;BME280;42354;53.218;6.564;2022-11-20T04:16:21;46995.50;;;-142.92;72.66
56456;BME280;42354;53.218;6.564;2022-11-20T04:18:47;46974.97;;;-142.92;72.64
56456;BME280;42354;53.218;6.564;2022-11-20T04:21:12;47016.00;;;-142.92;72.69
56456;BME280;42354;53.218;6.564;2022-11-20T04:23:38;46991.38;;;-142.92;72.67
56456;BME280;42354;53.218;6.564;2022-11-20T04:26:10;46985.22;;;-142.92;72.46
56456;BME280;42354;53.218;6.564;2022-11-20T04:28:36;46999.59;;;-142.92;72.36
56456;BME280;42354;53.218;6.564;2022-11-20T04:31:06;47003.69;;;-142.92;71.98
56456;BME280;42354;53.218;6.564;2022-11-20T04:33:32;46985.22;;;-142.92;71.85
56456;BME280;42354;53.218;6.564;2022-11-20T04:36:18;46987.28;;;-142.92;71.26
56456;BME280;42354;53.218;6.564;2022-11-20T04:38:45;46987.28;;;-142.92;71.20
56456;BME280;42354;53.218;6.564;2022-11-20T04:41:19;46987.28;;;-142.92;70.59
56456;BME280;42354;53.218;6.564;2022-11-20T04:43:49;46999.59;;;-142.92;70.47
56456;BME280;42354;53.218;6.564;2022-11-20T04:46:16;47003.69;;;-142.92;70.58
56456;BME280;42354;53.218;6.564;2022-11-20T04:48:41;46995.50;;;-142.92;70.59
56456;BME280;42354;53.218;6.564;2022-11-20T04:51:07;46964.72;;;-142.92;70.64
56456;BME280;42354;53.218;6.564;2022-11-20T04:53:32;46991.38;;;-142.92;70.61
56456;BME280;42354;53.218;6.564;2022-11-20T04:56:02;46997.53;;;-142.92;70.67
56456;BME280;42354;53.218;6.564;2022-11-20T04:58:29;47007.81;;;-142.92;70.54
56456;BME280;42354;53.218;6.564;2022-11-20T05:01:11;47001.66;;;-142.92;70.70
56456;BME280;42354;53.218;6.564;2022-11-20T05:03:39;46985.22;;;-142.92;70.84
56456;BME280;42354;53.218;6.564;2022-11-20T05:06:06;46987.28;;;-142.92;70.79
56456;BME280;42354;53.218;6.564;2022-11-20T05:08:33;47022.16;;;-142.92;70.79
56456;BME280;42354;53.218;6.564;2022-11-20T05:11:12;46997.53;;;-142.92;70.60
56456;BME280;42354;53.218;6.564;2022-11-20T05:13:38;46987.28;;;-142.92;70.55
56456;BME280;42354;53.218;6.564;2022-11-20T05:16:06;47005.75;;;-142.92;70.68
56456;BME280;42354;53.218;6.564;2022-11-20T05:18:33;46985.22;;;-142.92;70.35
56456;BME280;42354;53.218;6.564;2022-11-20T05:20:59;46985.22;;;-142.92;70.38
56456;BME280;42354;53.218;6.564;2022-11-20T05:23:25;46985.22;;;-142.92;70.42
56456;BME280;42354;53.218;6.564;2022-11-20T05:25:54;47009.84;;;-142.92;70.27
56456;BME280;42354;53.218;6.564;2022-11-20T05:28:20;46981.13;;;-142.92;70.30
56456;BME280;42354;53.218;6.564;2022-11-20T05:30:46;47001.66;;;-142.92;70.38
56456;BME280;42354;53.218;6.564;2022-11-20T05:33:11;46993.44;;;-142.92;70.20
56456;BME280;42354;53.218;6.564;2022-11-20T05:35:36;46977.03;;;-142.92;70.14
56456;BME280;42354;53.218;6.564;2022-11-20T05:38:02;46979.06;;;-142.92;70.13
56456;BME280;42354;53.218;6.564;2022-11-20T05:40:27;46989.34;;;-142.92;70.01
56456;BME280;42354;53.218;6.564;2022-11-20T05:42:53;46995.50;;;-142.92;70.01
56456;BME280;42354;53.218;6.564;2022-11-20T05:45:18;46960.59;;;-142.92;69.95
56456;BME280;42354;53.218;6.564;2022-11-20T05:47:43;47003.69;;;-142.92;69.93
56456;BME280;42354;53.218;6.564;2022-11-20T05:50:09;47007.81;;;-142.92;69.92
56456;BME280;42354;53.218;6.564;2022-11-20T05:52:34;47007.81;;;-142.92;69.91
56456;BME280;42354;53.218;6.564;2022-11-20T05:54:59;47003.69;;;-142.92;69.81
56456;BME280;42354;53.218;6.564;2022-11-20T05:57:25;46977.03;;;-142.92;69.58
56456;BME280;42354;53.218;6.564;2022-11-20T05:59:50;46991.38;;;-142.92;69.39
56456;BME280;42354;53.218;6.564;2022-11-20T06:02:15;46985.22;;;-142.92;69.56
56456;BME280;42354;53.218;6.564;2022-11-20T06:04:41;47007.81;;;-142.92;69.38
56456;BME280;42354;53.218;6.564;2022-11-20T06:07:06;46977.03;;;-142.92;69.18
56456;BME280;42354;53.218;6.564;2022-11-20T06:09:32;46993.44;;;-142.92;69.19
56456;BME280;42354;53.218;6.564;2022-11-20T06:11:58;46983.19;;;-142.92;68.84
56456;BME280;42354;53.218;6.564;2022-11-20T06:14:23;46989.34;;;-142.92;68.68
56456;BME280;42354;53.218;6.564;2022-11-20T06:16:48;46987.28;;;-142.92;68.66
56456;BME280;42354;53.218;6.564;2022-11-20T06:19:14;46991.38;;;-142.92;68.82
56456;BME280;42354;53.218;6.564;2022-11-20T06:21:41;46995.50;;;-142.92;68.71
56456;BME280;42354;53.218;6.564;2022-11-20T06:24:09;46985.22;;;-142.92;68.86
56456;BME280;42354;53.218;6.564;2022-11-20T06:26:34;47011.91;;;-142.92;69.16
56456;BME280;42354;53.218;6.564;2022-11-20T06:29:00;46985.22;;;-142.92;68.84
56456;BME280;42354;53.218;6.564;2022-11-20T06:31:25;46991.38;;;-142.92;68.90
56456;BME280;42354;53.218;6.564;2022-11-20T06:33:51;46989.34;;;-142.92;69.00
56456;BME280;42354;53.218;6.564;2022-11-20T06:36:19;46989.34;;;-142.92;69.03
56456;BME280;42354;53.218;6.564;2022-11-20T06:38:45;46964.72;;;-142.92;69.29
56456;BME280;42354;53.218;6.564;2022-11-20T06:41:13;46964.72;;;-142.92;69.27
56456;BME280;42354;53.218;6.564;2022-11-20T06:43:39;47016.00;;;-142.92;69.31
56456;BME280;42354;53.218;6.564;2022-11-20T06:46:04;47009.84;;;-142.92;69.22
56456;BME280;42354;53.218;6.564;2022-11-20T06:48:30;47003.69;;;-142.92;69.45
56456;BME280;42354;53.218;6.564;2022-11-20T06:50:56;46997.53;;;-142.92;69.36
56456;BME280;42354;53.218;6.564;2022-11-20T06:53:22;46979.06;;;-142.92;69.39
56456;BME280;42354;53.218;6.564;2022-11-20T06:55:48;46987.28;;;-142.92;69.36
56456;BME280;42354;53.218;6.564;2022-11-20T06:58:15;46985.22;;;-142.92;69.58
56456;BME280;42354;53.218;6.564;2022-11-20T07:00:41;46991.38;;;-142.92;69.73
56456;BME280;42354;53.218;6.564;2022-11-20T07:03:08;46972.91;;;-142.92;69.69
56456;BME280;42354;53.218;6.564;2022-11-20T07:05:35;46999.59;;;-142.92;69.69
56456;BME280;42354;53.218;6.564;2022-11-20T07:08:00;46997.53;;;-142.92;69.91
56456;BME280;42354;53.218;6.564;2022-11-20T07:10:26;47003.69;;;-142.92;70.09
56456;BME280;42354;53.218;6.564;2022-11-20T07:12:52;46997.53;;;-142.92;70.05
56456;BME280;42354;53.218;6.564;2022-11-20T07:15:19;47016.00;;;-142.92;70.00
56456;BME280;42354;53.218;6.564;2022-11-20T07:17:45;46977.03;;;-142.92;70.06
56456;BME280;42354;53.218;6.564;2022-11-20T07:20:10;46995.50;;;-142.92;69.89
56456;BME280;42354;53.218;6.564;2022-11-20T07:22:36;47005.75;;;-142.92;69.56
56456;BME280;42354;53.218;6.564;2022-11-20T07:25:02;47028.31;;;-142.92;69.61
56456;BME280;42354;53.218;6.564;2022-11-20T07:27:28;46985.22;;;-142.92;69.47
56456;BME280;42354;53.218;6.564;2022-11-20T07:29:54;46999.59;;;-142.92;69.68
56456;BME280;42354;53.218;6.564;2022-11-20T07:32:19;46977.03;;;-142.92;69.65
56456;BME280;42354;53.218;6.564;2022-11-20T07:34:44;46995.50;;;-142.92;69.45
56456;BME280;42354;53.218;6.564;2022-11-20T07:37:10;46987.28;;;-142.92;69.41
56456;BME280;42354;53.218;6.564;2022-11-20T07:39:35;46985.22;;;-142.92;69.19
56456;BME280;42354;53.218;6.564;2022-11-20T07:42:00;47003.69;;;-142.92;68.88
56456;BME280;42354;53.218;6.564;2022-11-20T07:44:26;46987.28;;;-142.92;68.92
56456;BME280;42354;53.218;6.564;2022-11-20T07:46:51;46989.34;;;-142.92;68.85
56456;BME280;42354;53.218;6.564;2022-11-20T07:49:16;46979.06;;;-142.92;68.80
56456;BME280;42354;53.218;6.564;2022-11-20T07:51:42;46981.13;;;-142.92;69.06
56456;BME280;42354;53.218;6.564;2022-11-20T07:54:07;47007.81;;;-142.92;69.20
56456;BME280;42354;53.218;6.564;2022-11-20T07:56:33;47013.97;;;-142.92;69.34
56456;BME280;42354;53.218;6.564;2022-11-20T07:58:58;46987.28;;;-142.92;69.34
56456;BME280;42354;53.218;6.564;2022-11-20T08:01:23;46981.13;;;-142.92;69.21
56456;BME280;42354;53.218;6.564;2022-11-20T08:03:49;46983.19;;;-142.92;68.93
56456;BME280;42354;53.218;6.564;2022-11-20T08:06:14;46995.50;;;-142.92;68.98
56456;BME280;42354;53.218;6.564;2022-11-20T08:08:39;46999.59;;;-142.92;69.08
56456;BME280;42354;53.218;6.564;2022-11-20T08:11:05;46991.38;;;-142.92;69.11
56456;BME280;42354;53.218;6.564;2022-11-20T08:13:50;46997.53;;;-142.92;69.11
56456;BME280;42354;53.218;6.564;2022-11-20T08:16:34;47009.84;;;-142.92;69.33
56456;BME280;42354;53.218;6.564;2022-11-20T08:18:59;46999.59;;;-142.92;69.26
56456;BME280;42354;53.218;6.564;2022-11-20T08:21:24;46985.22;;;-142.92;69.31
56456;BME280;42354;53.218;6.564;2022-11-20T08:23:50;46987.28;;;-142.92;69.13
56456;BME280;42354;53.218;6.564;2022-11-20T08:26:16;46997.53;;;-142.92;69.03
56456;BME280;42354;53.218;6.564;2022-11-20T08:28:41;46987.28;;;-142.92;69.02
56456;BME280;42354;53.218;6.564;2022-11-20T08:31:06;46991.38;;;-142.92;68.93
56456;BME280;42354;53.218;6.564;2022-11-20T08:33:32;46983.19;;;-142.92;69.01
56456;BME280;42354;53.218;6.564;2022-11-20T08:36:02;46970.88;;;-142.92;68.66
56456;BME280;42354;53.218;6.564;2022-11-20T08:38:28;46970.88;;;-142.92;68.55
56456;BME280;42354;53.218;6.564;2022-11-20T08:41:01;46999.59;;;-142.92;68.06
56456;BME280;42354;53.218;6.564;2022-11-20T08:43:45;46974.97;;;-142.92;68.23
56456;BME280;42354;53.218;6.564;2022-11-20T08:46:11;47003.69;;;-142.92;68.08
56456;BME280;42354;53.218;6.564;2022-11-20T08:48:37;46995.50;;;-142.92;68.19
56456;BME280;42354;53.218;6.564;2022-11-20T08:51:02;47005.75;;;-142.92;68.02
56456;BME280;42354;53.218;6.564;2022-11-20T08:53:28;46995.50;;;-142.92;68.00
56456;BME280;42354;53.218;6.564;2022-11-20T08:55:53;46985.22;;;-142.92;68.08
56456;BME280;42354;53.218;6.564;2022-11-20T08:58:18;46993.44;;;-142.92;67.77
56456;BME280;42354;53.218;6.564;2022-11-20T09:00:44;46991.38;;;-142.92;67.38
56456;BME280;42354;53.218;6.564;2022-11-20T09:03:09;46972.91;;;-142.92;67.47
56456;BME280;42354;53.218;6.564;2022-11-20T09:05:34;46999.59;;;-142.92;67.63
56456;BME280;42354;53.218;6.564;2022-11-20T09:08:00;46995.50;;;-142.92;67.65
56456;BME280;42354;53.218;6.564;2022-11-20T09:10:26;46987.28;;;-142.92;67.65
56456;BME280;42354;53.218;6.564;2022-11-20T09:12:52;46977.03;;;-142.92;67.76
56456;BME280;42354;53.218;6.564;2022-11-20T09:15:18;46997.53;;;-142.92;67.96
56456;BME280;42354;53.218;6.564;2022-11-20T09:18:03;46989.34;;;-142.92;67.59
56456;BME280;42354;53.218;6.564;2022-11-20T09:20:30;47013.97;;;-142.92;67.80
56456;BME280;42354;53.218;6.564;2022-11-20T09:22:56;47007.81;;;-142.92;67.75
56456;BME280;42354;53.218;6.564;2022-11-20T09:25:22;46983.19;;;-142.92;67.70
56456;BME280;42354;53.218;6.564;2022-11-20T09:27:47;47003.69;;;-142.92;67.54
56456;BME280;42354;53.218;6.564;2022-11-20T09:30:14;46999.59;;;-142.92;67.40
56456;BME280;42354;53.218;6.564;2022-11-20T09:32:39;46993.44;;;-142.92;67.20
56456;BME280;42354;53.218;6.564;2022-11-20T09:35:05;46989.34;;;-142.92;67.50
56456;BME280;42354;53.218;6.564;2022-11-20T09:37:31;46997.53;;;-142.92;67.35
56456;BME280;42354;53.218;6.564;2022-11-20T09:39:56;46993.44;;;-142.92;67.43
56456;BME280;42354;53.218;6.564;2022-11-20T09:48:18;47011.91;;;-142.92;65.92
56456;BME280;42354;53.218;6.564;2022-11-20T09:50:49;47005.75;;;-142.92;65.93
56456;BME280;42354;53.218;6.564;2022-11-20T09:56:08;46989.34;;;-142.92;65.12
56456;BME280;42354;53.218;6.564;2022-11-20T09:58:45;47001.66;;;-142.92;64.69
56456;BME280;42354;53.218;6.564;2022-11-20T10:01:15;47007.81;;;-142.92;64.50
56456;BME280;42354;53.218;6.564;2022-11-20T10:04:15;46995.50;;;-142.92;63.84
56456;BME280;42354;53.218;6.564;2022-11-20T10:06:53;47011.91;;;-142.92;64.08
56456;BME280;42354;53.218;6.564;2022-11-20T10:09:32;46999.59;;;-142.92;63.71
56456;BME280;42354;53.218;6.564;2022-11-20T10:19:45;46989.34;;;-142.92;62.68
56456;BME280;42354;53.218;6.564;2022-11-20T10:22:21;46981.13;;;-142.92;62.34
56456;BME280;42354;53.218;6.564;2022-11-20T10:24:55;47022.16;;;-142.92;62.24
56456;BME280;42354;53.218;6.564;2022-11-20T10:32:36;46983.19;;;-142.92;60.81
56456;BME280;42354;53.218;6.564;2022-11-20T10:38:02;46987.28;;;-142.92;60.36
56456;BME280;42354;53.218;6.564;2022-11-20T10:40:50;46997.53;;;-142.92;59.60
56456;BME280;42354;53.218;6.564;2022-11-20T10:43:33;46985.22;;;-142.92;59.84
56456;BME280;42354;53.218;6.564;2022-11-20T10:46:09;47009.84;;;-142.92;59.42
56456;BME280;42354;53.218;6.564;2022-11-20T10:48:36;47005.75;;;-142.92;59.46
56456;BME280;42354;53.218;6.564;2022-11-20T10:51:12;47003.69;;;-142.92;58.72
56456;BME280;42354;53.218;6.564;2022-11-20T10:53:45;46997.53;;;-142.92;59.05
56456;BME280;42354;53.218;6.564;2022-11-20T11:01:28;47003.69;;;-142.92;57.70
56456;BME280;42354;53.218;6.564;2022-11-20T11:03:55;46995.50;;;-142.92;57.16
56456;BME280;42354;53.218;6.564;2022-11-20T11:06:27;47003.69;;;-142.92;56.86
56456;BME280;42354;53.218;6.564;2022-11-20T11:08:56;47007.81;;;-142.92;56.76
56456;BME280;42354;53.218;6.564;2022-11-20T11:11:27;47003.69;;;-142.92;56.47
56456;BME280;42354;53.218;6.564;2022-11-20T11:14:04;46991.38;;;-142.92;56.03
56456;BME280;42354;53.218;6.564;2022-11-20T11:16:30;47020.13;;;-142.92;56.68
56456;BME280;42354;53.218;6.564;2022-11-20T11:19:05;46991.38;;;-142.92;55.83
56456;BME280;42354;53.218;6.564;2022-11-20T11:21:30;47011.91;;;-142.92;56.37
56456;BME280;42354;53.218;6.564;2022-11-20T11:23:59;46987.28;;;-142.92;56.42
56456;BME280;42354;53.218;6.564;2022-11-20T11:26:24;46999.59;;;-142.92;56.74
56456;BME280;42354;53.218;6.564;2022-11-20T11:28:59;47009.84;;;-142.92;56.46
56456;BME280;42354;53.218;6.564;2022-11-20T11:31:27;46997.53;;;-142.92;56.86
56456;BME280;42354;53.218;6.564;2022-11-20T11:34:07;47016.00;;;-142.92;56.64
56456;BME280;42354;53.218;6.564;2022-11-20T11:36:34;47007.81;;;-142.92;56.88
56456;BME280;42354;53.218;6.564;2022-11-20T11:39:00;46993.44;;;-142.92;56.60
56456;BME280;42354;53.218;6.564;2022-11-20T11:41:31;47011.91;;;-142.92;56.75
56456;BME280;42354;53.218;6.564;2022-11-20T11:44:14;47009.84;;;-142.92;56.51
56456;BME280;42354;53.218;6.564;2022-11-20T11:46:59;47020.13;;;-142.92;56.62
56456;BME280;42354;53.218;6.564;2022-11-20T11:49:25;46987.28;;;-142.92;56.71
56456;BME280;42354;53.218;6.564;2022-11-20T11:54:36;47016.00;;;-142.92;56.58
56456;BME280;42354;53.218;6.564;2022-11-20T12:00:14;46997.53;;;-142.92;56.36
56456;BME280;42354;53.218;6.564;2022-11-20T12:11:06;47005.75;;;-142.92;54.46
56456;BME280;42354;53.218;6.564;2022-11-20T12:16:03;46999.59;;;-142.92;53.95
56456;BME280;42354;53.218;6.564;2022-11-20T12:18:29;46991.38;;;-142.92;53.31
56456;BME280;42354;53.218;6.564;2022-11-20T12:24:08;46999.59;;;-142.92;52.20
56456;BME280;42354;53.218;6.564;2022-11-20T12:32:38;47005.75;;;-142.92;51.82
56456;BME280;42354;53.218;6.564;2022-11-20T12:37:37;47007.81;;;-142.92;50.01
56456;BME280;42354;53.218;6.564;2022-11-20T12:40:35;47024.22;;;-142.92;47.33
56456;BME280;42354;53.218;6.564;2022-11-20T12:51:06;46987.28;;;-142.92;46.58
56456;BME280;42354;53.218;6.564;2022-11-20T13:01:47;46989.34;;;-142.92;45.34
56456;BME280;42354;53.218;6.564;2022-11-20T13:06:46;46999.59;;;-142.92;46.44
56456;BME280;42354;53.218;6.564;2022-11-20T13:09:15;46979.06;;;-142.92;46.20
56456;BME280;42354;53.218;6.564;2022-11-20T13:11:50;46991.38;;;-142.92;45.99
56456;BME280;42354;53.218;6.564;2022-11-20T13:14:43;46993.44;;;-142.92;46.34
56456;BME280;42354;53.218;6.564;2022-11-20T13:19:37;46999.59;;;-142.92;46.81
56456;BME280;42354;53.218;6.564;2022-11-20T13:22:03;47024.22;;;-142.92;46.75
56456;BME280;42354;53.218;6.564;2022-11-20T13:24:30;46985.22;;;-142.92;46.69
56456;BME280;42354;53.218;6.564;2022-11-20T13:27:17;47011.91;;;-142.92;46.61
56456;BME280;42354;53.218;6.564;2022-11-20T13:29:46;47007.81;;;-142.92;46.95
56456;BME280;42354;53.218;6.564;2022-11-20T13:32:20;47005.75;;;-142.92;47.08
56456;BME280;42354;53.218;6.564;2022-11-20T13:34:54;46977.03;;;-142.92;47.00
56456;BME280;42354;53.218;6.564;2022-11-20T13:37:35;46993.44;;;-142.92;47.46
56456;BME280;42354;53.218;6.564;2022-11-20T13:42:35;47009.84;;;-142.92;48.11
56456;BME280;42354;53.218;6.564;2022-11-20T13:45:09;46997.53;;;-142.92;48.28
56456;BME280;42354;53.218;6.564;2022-11-20T13:47:35;47020.13;;;-142.92;48.52
56456;BME280;42354;53.218;6.564;2022-11-20T13:50:03;47003.69;;;-142.92;48.70
56456;BME280;42354;53.218;6.564;2022-11-20T13:55:54;46993.44;;;-142.92;48.69
56456;BME280;42354;53.218;6.564;2022-11-20T14:01:10;47005.75;;;-142.92;49.28
56456;BME280;42354;53.218;6.564;2022-11-20T14:03:40;46989.34;;;-142.92;49.27
56456;BME280;42354;53.218;6.564;2022-11-20T14:06:13;46995.50;;;-142.92;48.98
56456;BME280;42354;53.218;6.564;2022-11-20T14:08:42;47016.00;;;-142.92;49.36
56456;BME280;42354;53.218;6.564;2022-11-20T14:14:02;46987.28;;;-142.92;49.53
56456;BME280;42354;53.218;6.564;2022-11-20T14:16:30;47003.69;;;-142.92;49.75
56456;BME280;42354;53.218;6.564;2022-11-20T14:21:42;46999.59;;;-142.92;50.33
56456;BME280;42354;53.218;6.564;2022-11-20T14:24:11;46991.38;;;-142.92;50.42